Time;durP1;ratioP1;P1;durP2;ratioP2;P2;SDS_P1;SDS_P2;PMS_P1;PMS_P2;Temp;Humidity;BMP_temperature;BMP_pressure;BME280_temperature;BME280_humidity;BME280_pressure;Samples;Min_cycle;Max_cycle;Signal;HPM_P1;HPM_P2
2021/07/26 00:01:49;;;;;;;10.93;9.43;;;22.60;79.00;;;;;;6102892;23;20370;-92
2021/07/26 00:04:15;;;;;;;10.60;9.18;;;22.60;79.50;;;;;;6103297;23;20006;-93
2021/07/26 00:06:43;;;;;;;12.00;9.63;;;22.70;80.30;;;;;;6102727;23;20448;-93
2021/07/26 00:09:09;;;;;;;10.40;9.30;;;22.70;80.80;;;;;;6102920;23;20006;-92
2021/07/26 00:11:35;;;;;;;10.77;9.75;;;22.80;81.00;;;;;;6103743;23;20009;-92
2021/07/26 00:14:00;;;;;;;11.80;10.60;;;22.80;81.30;;;;;;6103456;23;20422;-92
2021/07/26 00:16:26;;;;;;;14.18;11.38;;;22.80;82.00;;;;;;6102966;23;20422;-92
2021/07/26 00:18:52;;;;;;;12.45;11.13;;;22.80;83.20;;;;;;6102507;23;20017;-92
2021/07/26 00:21:18;;;;;;;11.27;10.07;;;22.90;83.10;;;;;;6102738;23;20005;-92
2021/07/26 00:23:44;;;;;;;10.68;9.68;;;22.90;82.90;;;;;;6102975;23;20009;-92
2021/07/26 00:26:09;;;;;;;9.45;8.52;;;22.90;82.30;;;;;;6102785;23;20009;-93
2021/07/26 00:28:35;;;;;;;8.63;7.72;;;22.90;82.20;;;;;;6102890;23;20006;-92
2021/07/26 00:31:01;;;;;;;9.90;8.93;;;22.90;82.10;;;;;;6102699;23;20386;-92
2021/07/26 00:34:06;;;;;;;11.70;8.85;;;22.90;82.50;;;;;;6102926;23;20006;-92
2021/07/26 00:36:34;;;;;;;8.82;7.93;;;22.90;82.10;;;;;;6102714;23;20045;-92
2021/07/26 00:39:00;;;;;;;8.88;7.97;;;22.90;82.10;;;;;;6102664;23;20014;-92
2021/07/26 00:41:25;;;;;;;9.85;8.32;;;22.90;82.00;;;;;;6102749;23;20040;-92
2021/07/26 00:43:51;;;;;;;9.05;8.00;;;22.90;82.10;;;;;;6102682;23;20002;-92
2021/07/26 00:46:17;;;;;;;8.20;7.40;;;22.90;81.90;;;;;;6102790;23;20006;-92
2021/07/26 00:48:44;;;;;;;9.02;8.13;;;22.90;82.10;;;;;;6102541;23;20425;-92
2021/07/26 00:51:11;;;;;;;8.63;7.68;;;22.90;81.90;;;;;;6102693;23;20010;-92
2021/07/26 00:53:38;;;;;;;9.32;8.18;;;22.90;81.90;;;;;;6102784;23;20002;-92
2021/07/26 00:56:05;;;;;;;8.85;7.85;;;22.90;82.00;;;;;;6102306;23;20544;-93
2021/07/26 00:58:31;;;;;;;8.07;7.28;;;22.90;82.30;;;;;;6126713;23;20013;-93
2021/07/26 01:00:56;;;;;;;8.88;7.82;;;22.90;82.20;;;;;;6102744;23;20081;-92
2021/07/26 01:03:22;;;;;;;10.52;8.70;;;23.00;82.30;;;;;;6102711;23;20008;-92
2021/07/26 01:05:48;;;;;;;8.25;7.43;;;23.00;82.60;;;;;;6102764;23;20310;-92
2021/07/26 01:08:14;;;;;;;8.35;7.55;;;23.00;82.60;;;;;;6102398;23;20005;-92
2021/07/26 01:10:41;;;;;;;7.90;7.20;;;23.00;82.80;;;;;;6126483;23;20057;-91
2021/07/26 01:13:06;;;;;;;8.30;7.50;;;23.00;82.70;;;;;;6127048;23;20006;-92
2021/07/26 01:15:32;;;;;;;8.93;7.97;;;23.00;82.70;;;;;;6102653;23;20430;-92
2021/07/26 01:18:23;;;;;;;7.30;6.60;;;23.00;82.80;;;;;;6102687;23;20072;-92
2021/07/26 01:20:53;;;;;;;7.57;6.78;;;23.00;82.60;;;;;;6102722;23;20446;-92
2021/07/26 01:23:20;;;;;;;7.50;6.70;;;23.00;82.40;;;;;;6126886;23;20417;-92
2021/07/26 01:25:46;;;;;;;7.82;6.47;;;23.00;82.30;;;;;;6126823;23;20058;-92
2021/07/26 01:28:16;;;;;;;7.53;6.32;;;23.00;82.10;;;;;;6102317;23;20010;-92
2021/07/26 01:30:46;;;;;;;7.35;5.82;;;23.00;82.00;;;;;;6102684;23;20085;-92
2021/07/26 01:33:14;;;;;;;7.93;6.25;;;23.00;82.00;;;;;;6102387;23;20053;-92
2021/07/26 01:35:40;;;;;;;7.20;6.50;;;23.00;81.90;;;;;;6126683;23;20033;-92
2021/07/26 01:38:07;;;;;;;7.55;6.80;;;23.00;81.80;;;;;;6126654;23;20038;-92
2021/07/26 01:40:35;;;;;;;7.35;5.90;;;23.00;81.80;;;;;;6126470;23;20006;-92
2021/07/26 01:43:04;;;;;;;8.43;7.07;;;23.00;81.80;;;;;;6126076;23;20021;-92
2021/07/26 01:45:32;;;;;;;9.93;7.22;;;23.00;81.90;;;;;;6126684;23;19998;-93
2021/07/26 01:48:26;;;;;;;8.90;7.40;;;23.00;81.80;;;;;;6126889;23;20374;-92
2021/07/26 01:51:15;;;;;;;8.23;7.43;;;23.10;82.20;;;;;;6102603;23;20041;-92
2021/07/26 01:53:44;;;;;;;7.25;6.25;;;23.10;82.20;;;;;;6105044;23;20053;-92
2021/07/26 01:56:10;;;;;;;8.65;7.18;;;23.10;82.00;;;;;;6129641;23;20014;-92
2021/07/26 01:58:36;;;;;;;7.35;6.45;;;23.10;81.90;;;;;;6105611;23;20014;-92
2021/07/26 02:01:02;;;;;;;8.35;7.32;;;23.10;81.70;;;;;;6102260;23;20108;-93
2021/07/26 02:03:30;;;;;;;7.15;6.45;;;23.20;81.80;;;;;;6102564;23;20330;-92
2021/07/26 02:05:56;;;;;;;7.45;6.75;;;23.20;81.80;;;;;;6102737;23;20007;-93
2021/07/26 02:08:22;;;;;;;7.45;6.68;;;23.20;81.90;;;;;;6102008;23;20009;-92
2021/07/26 02:10:48;;;;;;;7.47;6.68;;;23.20;81.80;;;;;;6101615;23;20010;-92
2021/07/26 02:13:14;;;;;;;7.65;6.85;;;23.20;81.60;;;;;;6102344;23;20303;-91
2021/07/26 02:15:40;;;;;;;6.68;6.07;;;23.30;81.50;;;;;;6101841;23;20179;-92
2021/07/26 02:18:06;;;;;;;6.55;5.65;;;23.20;81.50;;;;;;6101739;23;20010;-91
2021/07/26 02:20:32;;;;;;;6.95;6.25;;;23.30;81.50;;;;;;6102620;23;20012;-92
2021/07/26 02:22:58;;;;;;;7.50;6.10;;;23.30;81.50;;;;;;6102213;23;20528;-92
2021/07/26 02:25:24;;;;;;;8.30;7.50;;;23.30;81.30;;;;;;6101699;23;20009;-91
2021/07/26 02:27:49;;;;;;;8.10;7.00;;;23.20;81.50;;;;;;6101769;23;20056;-92
2021/07/26 02:30:16;;;;;;;7.95;7.15;;;23.20;81.80;;;;;;6101878;23;20006;-93
2021/07/26 02:32:42;;;;;;;9.10;7.88;;;23.20;82.20;;;;;;6101828;23;20498;-92
2021/07/26 02:35:09;;;;;;;8.38;7.47;;;23.20;82.50;;;;;;6102288;23;20002;-92
2021/07/26 02:37:34;;;;;;;8.43;7.63;;;23.20;82.50;;;;;;6103301;23;20012;-93
2021/07/26 02:40:00;;;;;;;9.68;8.68;;;23.20;82.70;;;;;;6102180;23;20092;-93
2021/07/26 02:42:26;;;;;;;8.23;7.35;;;23.20;82.80;;;;;;6101737;23;19999;-93
2021/07/26 02:44:52;;;;;;;8.50;6.82;;;23.20;82.50;;;;;;6101751;23;20134;-93
2021/07/26 02:47:18;;;;;;;8.93;7.95;;;23.20;82.50;;;;;;6102148;23;20042;-92
2021/07/26 02:49:43;;;;;;;8.45;7.60;;;23.20;82.50;;;;;;6102199;23;20422;-93
2021/07/26 02:52:09;;;;;;;9.57;8.13;;;23.20;82.70;;;;;;6102174;23;20073;-93
2021/07/26 02:54:35;;;;;;;9.15;8.25;;;23.20;83.10;;;;;;6102152;23;20053;-93
2021/07/26 02:57:01;;;;;;;7.97;7.18;;;23.20;83.10;;;;;;6101520;23;20025;-93
2021/07/26 02:59:26;;;;;;;8.65;6.78;;;23.20;83.00;;;;;;6101897;23;20457;-93
2021/07/26 03:01:52;;;;;;;8.27;7.10;;;23.20;82.70;;;;;;6102012;23;20010;-93
2021/07/26 03:04:18;;;;;;;7.65;6.63;;;23.20;82.40;;;;;;6101962;23;20006;-92
2021/07/26 03:06:44;;;;;;;7.28;6.13;;;23.20;82.10;;;;;;6101810;23;20006;-93
2021/07/26 03:09:10;;;;;;;7.50;6.72;;;23.30;81.60;;;;;;6101751;23;20008;-93
2021/07/26 03:11:36;;;;;;;6.78;5.88;;;23.40;81.20;;;;;;6102083;23;20014;-93
2021/07/26 03:14:03;;;;;;;7.55;5.80;;;23.40;80.70;;;;;;6103663;23;20006;-92
2021/07/26 03:16:29;;;;;;;5.82;5.22;;;23.50;80.30;;;;;;6103437;23;20005;-94
2021/07/26 03:18:55;;;;;;;6.05;5.45;;;23.50;79.90;;;;;;6103639;23;20114;-93
2021/07/26 03:21:21;;;;;;;6.70;6.05;;;23.50;79.50;;;;;;6103748;23;20088;-93
2021/07/26 03:23:46;;;;;;;6.82;5.60;;;23.60;79.40;;;;;;6104231;23;19998;-92
2021/07/26 03:26:13;;;;;;;6.55;5.70;;;23.60;79.20;;;;;;6103551;23;20082;-93
2021/07/26 03:28:39;;;;;;;6.43;5.65;;;23.60;79.20;;;;;;6103478;23;20010;-93
2021/07/26 03:31:04;;;;;;;7.03;5.97;;;23.60;79.00;;;;;;6103452;23;20002;-93
2021/07/26 03:33:30;;;;;;;7.10;6.32;;;23.70;79.10;;;;;;6104070;23;20006;-93
2021/07/26 03:35:56;;;;;;;7.28;5.97;;;23.70;79.10;;;;;;6106419;23;20002;-92
2021/07/26 03:38:23;;;;;;;6.40;5.72;;;23.70;79.20;;;;;;6106799;23;20045;-92
2021/07/26 03:40:50;;;;;;;6.90;6.30;;;23.70;79.20;;;;;;6115813;23;19998;-92
2021/07/26 03:43:16;;;;;;;7.95;6.97;;;23.80;79.40;;;;;;6122498;23;19998;-93
2021/07/26 03:45:43;;;;;;;8.50;6.32;;;23.80;79.30;;;;;;6116991;23;20013;-93
2021/07/26 03:48:08;;;;;;;6.70;6.00;;;23.80;79.20;;;;;;6110417;23;20083;-93
2021/07/26 03:50:35;;;;;;;6.80;6.10;;;23.80;79.10;;;;;;6103736;23;20333;-93
2021/07/26 03:53:04;;;;;;;8.43;7.05;;;23.90;79.20;;;;;;6103400;23;20438;-93
2021/07/26 03:55:35;;;;;;;8.50;6.90;;;23.90;79.20;;;;;;6102280;23;20038;-93
2021/07/26 03:58:04;;;;;;;7.50;6.45;;;24.00;79.40;;;;;;6103105;23;19998;-93
2021/07/26 04:00:41;;;;;;;8.15;6.30;;;24.00;79.40;;;;;;6103101;23;20093;-93
2021/07/26 04:06:03;;;;;;;6.90;5.93;;;24.20;79.40;;;;;;6129013;23;20008;-93
2021/07/26 04:08:32;;;;;;;8.95;5.38;;;24.30;79.40;;;;;;6103045;23;20010;-93
2021/07/26 04:11:19;;;;;;;8.40;6.32;;;24.40;79.20;;;;;;6102780;23;20094;-93
2021/07/26 04:13:45;;;;;;;7.45;6.05;;;24.50;78.90;;;;;;6103517;23;20053;-93
2021/07/26 04:16:11;;;;;;;7.70;6.30;;;24.70;78.80;;;;;;6102799;23;20006;-93
2021/07/26 04:18:37;;;;;;;7.10;5.93;;;24.90;78.50;;;;;;6102641;23;20017;-93
2021/07/26 04:21:09;;;;;;;7.30;5.65;;;25.00;78.10;;;;;;6102600;23;20005;-93
2021/07/26 04:23:36;;;;;;;6.87;6.17;;;25.30;77.80;;;;;;6128013;23;20093;-93
2021/07/26 04:26:06;;;;;;;6.72;6.03;;;25.50;77.40;;;;;;6103504;23;20234;-93
2021/07/26 04:28:32;;;;;;;8.25;5.22;;;25.70;76.80;;;;;;6105091;23;20017;-93
2021/07/26 04:31:02;;;;;;;7.88;5.70;;;25.90;76.40;;;;;;6103025;23;20379;-93
2021/07/26 04:33:31;;;;;;;6.85;5.53;;;26.10;76.00;;;;;;6103227;23;20100;-93
2021/07/26 04:35:57;;;;;;;5.80;5.20;;;26.30;75.50;;;;;;6102506;23;20056;-93
2021/07/26 04:38:22;;;;;;;5.22;4.60;;;26.40;75.00;;;;;;6102455;23;20084;-93
2021/07/26 04:40:51;;;;;;;6.13;5.30;;;26.50;74.50;;;;;;6102726;23;20002;-94
2021/07/26 04:43:17;;;;;;;6.03;5.13;;;26.70;74.20;;;;;;6101858;23;19999;-93
2021/07/26 04:45:42;;;;;;;6.00;4.85;;;26.80;73.90;;;;;;6102593;23;20008;-93
2021/07/26 04:48:08;;;;;;;5.78;5.18;;;26.90;73.50;;;;;;6104818;23;20017;-93
2021/07/26 04:50:36;;;;;;;6.88;5.47;;;26.90;73.20;;;;;;6102549;23;20325;-93
2021/07/26 04:53:02;;;;;;;6.38;4.95;;;27.00;73.20;;;;;;6102882;23;20083;-93
2021/07/26 04:55:28;;;;;;;8.40;4.70;;;27.00;73.10;;;;;;6103980;23;20018;-93
2021/07/26 04:57:53;;;;;;;6.32;5.30;;;27.00;72.90;;;;;;6104014;23;20083;-92
2021/07/26 05:00:19;;;;;;;6.47;5.20;;;27.10;72.90;;;;;;6102334;23;20002;-93
2021/07/26 05:02:45;;;;;;;5.90;5.25;;;27.10;72.50;;;;;;6103494;23;20086;-93
2021/07/26 05:05:11;;;;;;;6.78;5.32;;;27.10;72.30;;;;;;6102828;23;20022;-93
2021/07/26 05:07:37;;;;;;;6.40;5.45;;;27.20;72.30;;;;;;6102667;23;20008;-94
2021/07/26 05:10:04;;;;;;;7.20;6.18;;;27.20;72.30;;;;;;6103078;23;20010;-93
2021/07/26 05:12:29;;;;;;;6.88;5.97;;;27.30;72.30;;;;;;6102427;23;20009;-93
2021/07/26 05:14:55;;;;;;;6.68;5.65;;;27.30;72.30;;;;;;6102803;23;20002;-93
2021/07/26 05:17:26;;;;;;;6.32;5.68;;;27.40;72.00;;;;;;6102408;23;20006;-94
2021/07/26 05:19:53;;;;;;;7.32;5.38;;;27.40;71.90;;;;;;6102464;23;20122;-93
2021/07/26 05:22:21;;;;;;;5.72;5.13;;;27.40;72.20;;;;;;6101886;23;20013;-93
2021/07/26 05:24:48;;;;;;;6.63;5.93;;;27.40;72.20;;;;;;6102372;23;20006;-93
2021/07/26 05:27:14;;;;;;;8.63;6.53;;;27.40;72.20;;;;;;6102515;23;20006;-93
2021/07/26 05:29:43;;;;;;;7.05;6.35;;;27.40;72.60;;;;;;6103592;23;19998;-92
2021/07/26 05:32:09;;;;;;;6.82;5.45;;;27.40;72.90;;;;;;6102253;23;20006;-93
2021/07/26 05:34:38;;;;;;;6.43;5.65;;;27.40;72.90;;;;;;6102523;23;20002;-92
2021/07/26 05:37:04;;;;;;;5.60;5.07;;;27.40;72.90;;;;;;6102521;23;20022;-92
2021/07/26 05:39:30;;;;;;;6.65;6.03;;;27.40;72.60;;;;;;6102130;23;20457;-93
2021/07/26 05:41:59;;;;;;;6.47;5.47;;;27.50;72.30;;;;;;6102681;23;20002;-93
2021/07/26 05:44:28;;;;;;;6.95;5.35;;;27.60;72.50;;;;;;6101899;23;20005;-93
2021/07/26 05:47:34;;;;;;;8.52;5.85;;;27.60;72.30;;;;;;6101493;23;20434;-92
2021/07/26 05:50:37;;;;;;;7.90;5.20;;;27.70;71.80;;;;;;6106654;23;20069;-92
2021/07/26 05:53:27;;;;;;;7.68;4.32;;;27.70;71.70;;;;;;6107293;23;20002;-92
2021/07/26 05:56:15;;;;;;;;;;;;;;;;;;;;;
2021/07/26 06:02:07;;;;;;;7.05;4.95;;;28.10;69.80;;;;;;6134278;23;20057;-94
2021/07/26 06:04:32;;;;;;;7.60;5.15;;;28.20;69.80;;;;;;6100265;23;20078;-94
2021/07/26 06:07:00;;;;;;;6.28;5.18;;;28.30;69.10;;;;;;6102707;23;20006;-93
2021/07/26 06:09:30;;;;;;;7.80;5.85;;;28.30;69.00;;;;;;6102077;23;20018;-92
2021/07/26 06:11:56;;;;;;;6.47;5.53;;;28.40;69.60;;;;;;6102064;23;20090;-94
2021/07/26 06:14:22;;;;;;;7.47;5.70;;;28.40;69.70;;;;;;6101815;23;20041;-94
2021/07/26 06:17:20;;;;;;;6.15;5.38;;;28.30;69.70;;;;;;6100226;23;20005;-94
2021/07/26 06:19:46;;;;;;;6.40;5.72;;;28.50;69.90;;;;;;6127274;23;20010;-94
2021/07/26 06:22:15;;;;;;;11.57;5.93;;;28.50;70.10;;;;;;6102356;23;20009;-94
2021/07/26 06:24:41;;;;;;;7.10;6.10;;;28.60;69.70;;;;;;6126723;23;20096;-94
2021/07/26 06:27:50;;;;;;;6.65;6.00;;;28.70;69.50;;;;;;6101743;23;20418;-94
2021/07/26 06:30:18;;;;;;;7.38;6.35;;;28.80;69.30;;;;;;6102615;23;20030;-94
2021/07/26 06:32:44;;;;;;;7.00;6.30;;;28.90;69.10;;;;;;6126899;23;20085;-94
2021/07/26 06:35:10;;;;;;;7.75;6.95;;;29.00;68.80;;;;;;6102269;23;20002;-94
2021/07/26 06:37:36;;;;;;;6.85;5.95;;;29.00;68.60;;;;;;6129091;23;20081;-93
2021/07/26 06:40:02;;;;;;;8.02;7.30;;;29.00;68.40;;;;;;6102639;23;20045;-94
2021/07/26 06:42:28;;;;;;;6.78;6.18;;;29.10;68.70;;;;;;6102282;23;20085;-94
2021/07/26 06:44:54;;;;;;;7.28;6.05;;;29.10;68.50;;;;;;6102703;23;20436;-94
2021/07/26 06:47:20;;;;;;;11.15;6.90;;;29.10;68.30;;;;;;6104103;23;19998;-94
2021/07/26 06:49:48;;;;;;;8.95;7.03;;;29.10;68.30;;;;;;6104944;23;20001;-94
2021/07/26 06:52:16;;;;;;;7.80;6.10;;;29.20;68.10;;;;;;6104259;23;20080;-93
2021/07/26 06:54:42;;;;;;;7.40;6.68;;;29.20;68.00;;;;;;6105654;23;20006;-93
2021/07/26 06:57:08;;;;;;;8.32;6.55;;;29.20;68.10;;;;;;6128153;23;20477;-94
2021/07/26 06:59:33;;;;;;;6.90;6.07;;;29.20;68.30;;;;;;6104183;23;20014;-94
2021/07/26 07:01:59;;;;;;;8.50;7.05;;;29.20;68.40;;;;;;6103666;23;20005;-94
2021/07/26 07:04:25;;;;;;;8.05;7.25;;;29.20;68.50;;;;;;6104284;23;20006;-94
2021/07/26 07:06:56;;;;;;;7.65;6.82;;;29.20;68.50;;;;;;6103927;23;20009;-94
2021/07/26 07:12:39;;;;;;;9.25;6.45;;;29.00;68.60;;;;;;6135630;23;20385;-96
2021/07/26 07:15:05;;;;;;;7.25;5.93;;;29.00;68.60;;;;;;6109633;23;20104;-94
2021/07/26 07:17:31;;;;;;;7.97;7.18;;;29.10;68.50;;;;;;6105363;23;20086;-95
2021/07/26 07:19:59;;;;;;;8.18;7.35;;;29.10;68.30;;;;;;6106262;23;20381;-94
2021/07/26 07:22:28;;;;;;;8.20;7.03;;;29.10;68.20;;;;;;6107634;23;20395;-96
2021/07/26 07:24:54;;;;;;;7.70;6.65;;;29.00;68.20;;;;;;6104586;23;20006;-96
2021/07/26 07:27:20;;;;;;;6.70;5.93;;;29.00;68.30;;;;;;6103860;23;20036;-96
2021/07/26 07:29:50;;;;;;;7.13;6.43;;;29.00;68.20;;;;;;6106294;23;20002;-96
2021/07/26 07:32:18;;;;;;;6.57;5.90;;;29.00;68.00;;;;;;6114418;23;20009;-95
2021/07/26 07:34:57;;;;;;;;;;;;;;;;;;;;;
2021/07/26 07:37:31;;;;;;;7.32;6.20;;;29.20;68.00;;;;;;6133884;23;20026;-95
2021/07/26 07:39:58;;;;;;;7.82;7.03;;;29.30;67.90;;;;;;6106690;23;20022;-94
2021/07/26 07:42:23;;;;;;;8.77;7.00;;;29.30;67.70;;;;;;6106609;23;20002;-95
2021/07/26 07:44:55;;;;;;;7.75;6.95;;;29.40;67.80;;;;;;6105201;23;20006;-95
2021/07/26 07:47:20;;;;;;;10.02;6.88;;;29.50;67.60;;;;;;6104316;23;20011;-95
2021/07/26 07:49:49;;;;;;;7.80;6.75;;;29.50;67.60;;;;;;6104964;23;20006;-94
2021/07/26 07:52:17;;;;;;;8.55;7.60;;;29.60;67.50;;;;;;6106103;23;20049;-96
2021/07/26 07:54:43;;;;;;;12.48;6.70;;;29.60;67.50;;;;;;6103946;23;20060;-94
2021/07/26 07:57:09;;;;;;;8.10;6.80;;;29.70;67.40;;;;;;6104141;23;20026;-94
2021/07/26 07:59:39;;;;;;;7.88;6.88;;;29.70;67.20;;;;;;6103623;23;20096;-94
2021/07/26 08:02:12;;;;;;;7.82;6.82;;;29.80;67.10;;;;;;6103586;23;20021;-93
2021/07/26 08:04:41;;;;;;;8.63;7.72;;;29.80;66.70;;;;;;6103880;23;20002;-94
2021/07/26 08:07:07;;;;;;;7.82;7.00;;;29.80;66.70;;;;;;6104261;23;20038;-94
2021/07/26 08:09:44;;;;;;;7.93;7.13;;;29.80;66.80;;;;;;6103455;23;20415;-95
2021/07/26 08:12:44;;;;;;;9.32;8.13;;;29.90;66.80;;;;;;6104476;23;20006;-95
2021/07/26 08:15:13;;;;;;;9.88;7.43;;;29.90;66.70;;;;;;6104644;23;20034;-94
2021/07/26 08:17:48;;;;;;;11.20;8.38;;;29.90;66.60;;;;;;6103418;23;20010;-93
2021/07/26 08:20:18;;;;;;;8.88;8.02;;;30.00;66.50;;;;;;6104184;23;20018;-94
2021/07/26 08:22:45;;;;;;;9.40;8.38;;;29.90;66.50;;;;;;6104617;23;20012;-94
2021/07/26 08:25:12;;;;;;;8.93;7.93;;;29.90;66.60;;;;;;6103036;23;20002;-95
2021/07/26 08:27:54;;;;;;;8.95;8.02;;;30.00;66.90;;;;;;6103898;23;20033;-94
2021/07/26 08:30:24;;;;;;;13.63;10.57;;;30.00;66.70;;;;;;6104337;23;20065;-94
2021/07/26 08:32:50;;;;;;;10.25;8.98;;;30.00;66.70;;;;;;6103329;23;20006;-94
2021/07/26 08:35:22;;;;;;;14.57;8.68;;;30.10;66.80;;;;;;6103991;23;20085;-94
2021/07/26 08:37:49;;;;;;;11.93;9.27;;;30.10;66.80;;;;;;6104829;23;20010;-92
2021/07/26 08:40:22;;;;;;;9.57;8.55;;;30.00;66.80;;;;;;6103131;23;20092;-94
2021/07/26 08:42:50;;;;;;;;;;;30.10;66.80;;;;;;6104983;23;20053;-94
2021/07/26 08:45:19;;;;;;;11.90;9.43;;;30.10;67.00;;;;;;6107071;23;19901;-93
2021/07/26 08:47:46;;;;;;;11.60;9.07;;;30.10;66.60;;;;;;6104557;23;20029;-94
2021/07/26 08:50:19;;;;;;;15.68;9.73;;;30.10;66.60;;;;;;6104426;23;19998;-93
2021/07/26 08:52:51;;;;;;;10.35;9.25;;;30.10;66.70;;;;;;6110645;23;20010;-93
2021/07/26 08:55:20;;;;;;;9.77;8.77;;;30.20;66.80;;;;;;6109905;23;20005;-94
2021/07/26 08:57:48;;;;;;;13.30;8.95;;;30.20;66.70;;;;;;6104247;23;20080;-94
2021/07/26 09:00:16;;;;;;;11.13;7.60;;;30.30;66.50;;;;;;6105351;23;20024;-96
2021/07/26 09:02:42;;;;;;;9.80;8.60;;;30.30;66.30;;;;;;6105744;23;20002;-95
2021/07/26 09:05:11;;;;;;;9.43;8.30;;;30.30;66.00;;;;;;6105578;23;20030;-95
2021/07/26 09:07:44;;;;;;;9.93;8.93;;;30.40;65.80;;;;;;6105386;23;20009;-95
2021/07/26 09:13:45;;;;;;;8.95;8.07;;;30.60;64.80;;;;;;5995005;24;20049;-95
2021/07/26 09:16:53;;;;;;;;;;;;;;;;;;;;;
2021/07/26 09:30:33;;;;;;;8.68;7.80;;;30.70;63.70;;;;;;6106744;23;20090;-94
2021/07/26 09:33:06;;;;;;;;;;;30.80;63.40;;;;;;6090798;23;20007;-95
2021/07/26 09:35:35;;;;;;;7.53;6.05;;;30.90;62.80;;;;;;6092014;23;19908;-95
2021/07/26 09:38:04;;;;;;;9.55;7.03;;;31.00;62.60;;;;;;6093651;23;20003;-95
2021/07/26 09:44:13;;;;;;;6.55;5.85;;;31.10;61.10;;;;;;5999221;24;20100;-95
2021/07/26 09:50:43;;;;;;;8.85;7.10;;;31.10;59.60;;;;;;6062884;23;20002;-95
2021/07/26 09:57:01;;;;;;;7.78;7.00;;;31.20;58.40;;;;;;6059997;23;20025;-95
2021/07/26 09:59:43;;;;;;;9.13;5.88;;;31.30;58.10;;;;;;6000086;23;20023;-95
2021/07/26 10:02:27;;;;;;;;;;;;;;;;;;;;;
2021/07/26 10:11:29;;;;;;;6.43;5.82;;;31.50;54.60;;;;;;6096697;23;20003;-94
2021/07/26 10:14:02;;;;;;;6.32;5.68;;;31.70;55.60;;;;;;6089466;23;20009;-96
2021/07/26 10:16:47;;;;;;;;;;;;;;;;;;;;;
2021/07/26 10:22:54;;;;;;;6.28;5.68;;;32.10;51.00;;;;;;6115702;23;20040;-96
2021/07/26 10:25:30;;;;;;;5.93;5.32;;;32.10;52.20;;;;;;6094822;23;20010;-95
2021/07/26 10:28:09;;;;;;;6.20;5.57;;;32.20;51.90;;;;;;6097999;23;20022;-96
2021/07/26 10:30:43;;;;;;;5.60;5.00;;;32.30;50.90;;;;;;6095524;23;19999;-95
2021/07/26 10:33:17;;;;;;;5.40;4.90;;;32.50;50.70;;;;;;6096381;23;20007;-94
2021/07/26 10:36:12;;;;;;;5.28;4.75;;;32.50;49.50;;;;;;6095164;23;19994;-94
2021/07/26 10:39:05;;;;;;;5.20;4.70;;;32.60;49.50;;;;;;6096338;23;19991;-96
2021/07/26 10:48:30;;;;;;;5.57;5.05;;;32.70;48.10;;;;;;5982250;23;20065;-94
2021/07/26 10:50:57;;;;;;;5.28;4.78;;;32.70;48.70;;;;;;6080730;23;19998;-94
2021/07/26 10:53:35;;;;;;;5.82;5.22;;;32.80;48.30;;;;;;6079700;23;20026;-93
2021/07/26 10:56:11;;;;;;;5.68;4.55;;;32.80;47.00;;;;;;6080434;23;20002;-93
2021/07/26 10:58:40;;;;;;;5.63;5.00;;;32.80;47.60;;;;;;6079771;23;20013;-94
2021/07/26 11:01:21;;;;;;;5.45;4.85;;;32.70;47.00;;;;;;6080851;23;20081;-94
2021/07/26 11:03:56;;;;;;;5.13;4.63;;;32.70;46.00;;;;;;6106675;23;20006;-94
2021/07/26 11:07:00;;;;;;;5.85;5.25;;;32.70;47.60;;;;;;6082342;23;19999;-94
2021/07/26 11:09:32;;;;;;;5.90;5.05;;;32.70;47.20;;;;;;6081605;23;19998;-94
2021/07/26 11:12:03;;;;;;;5.50;5.00;;;32.70;46.80;;;;;;6078521;23;20089;-94
2021/07/26 11:14:34;;;;;;;5.15;4.65;;;32.70;46.50;;;;;;6079285;23;20430;-95
2021/07/26 11:17:11;;;;;;;5.32;4.75;;;32.70;46.30;;;;;;6079031;23;20034;-93
2021/07/26 11:19:55;;;;;;;6.28;4.63;;;32.70;46.30;;;;;;6076101;23;20014;-95
2021/07/26 11:22:26;;;;;;;4.90;4.50;;;32.80;45.40;;;;;;6076953;23;20073;-95
2021/07/26 11:24:54;;;;;;;5.22;4.30;;;32.90;45.30;;;;;;6078184;23;20030;-95
2021/07/26 11:27:52;;;;;;;7.07;5.03;;;32.90;45.60;;;;;;6056960;23;20019;-94
2021/07/26 11:30:26;;;;;;;4.82;4.32;;;32.90;45.30;;;;;;6051660;23;20011;-93
2021/07/26 11:32:57;;;;;;;4.80;3.92;;;33.00;45.40;;;;;;6048812;23;19999;-94
2021/07/26 11:41:51;;;;;;;4.93;4.00;;;33.20;44.50;;;;;;6077541;23;20064;-94
2021/07/26 11:44:34;;;;;;;4.97;3.78;;;33.20;44.90;;;;;;6053997;23;20013;-94
2021/07/26 11:47:03;;;;;;;7.28;4.82;;;33.10;44.90;;;;;;6090987;23;20001;-93
2021/07/26 11:49:36;;;;;;;4.13;3.78;;;33.10;45.00;;;;;;6064705;23;20003;-93
2021/07/26 11:52:08;;;;;;;5.78;4.50;;;33.00;45.40;;;;;;6062474;23;20003;-93
2021/07/26 11:54:35;;;;;;;4.32;3.92;;;32.90;45.60;;;;;;6061443;23;20019;-94
2021/07/26 11:57:14;;;;;;;4.57;3.78;;;33.00;45.90;;;;;;6062814;23;20014;-95
2021/07/26 11:59:54;;;;;;;5.07;4.60;;;33.00;46.00;;;;;;6065344;23;20016;-94
2021/07/26 12:02:32;;;;;;;9.40;5.15;;;33.00;46.70;;;;;;6061055;23;20040;-94
2021/07/26 12:08:42;;;;;;;6.50;4.65;;;32.90;47.30;;;;;;6089583;23;20010;-96
2021/07/26 12:11:21;;;;;;;5.57;5.00;;;32.80;46.60;;;;;;6089544;23;20065;-95
2021/07/26 12:13:46;;;;;;;6.13;4.50;;;32.70;46.40;;;;;;6077168;23;20018;-95
2021/07/26 12:16:19;;;;;;;7.55;5.13;;;32.70;46.60;;;;;;6074256;23;20062;-96
2021/07/26 12:22:38;;;;;;;5.18;4.43;;;33.10;45.40;;;;;;6073165;23;20017;-94
2021/07/26 12:25:18;;;;;;;5.25;4.75;;;33.30;45.40;;;;;;6055792;23;20003;-94
2021/07/26 12:28:07;;;;;;;5.47;4.97;;;33.60;45.40;;;;;;6080313;23;20003;-94
2021/07/26 12:31:06;;;;;;;5.95;5.07;;;33.80;45.20;;;;;;6088300;23;19990;-96
2021/07/26 12:36:57;;;;;;;5.20;4.70;;;34.60;44.90;;;;;;6116652;23;20021;-94
2021/07/26 12:39:39;;;;;;;7.32;4.70;;;34.90;43.40;;;;;;6119019;23;20077;-94
2021/07/26 12:42:27;;;;;;;4.82;4.32;;;35.10;42.90;;;;;;6119982;23;20001;-96
2021/07/26 12:45:24;;;;;;;4.60;4.20;;;35.30;42.80;;;;;;6099836;23;20013;-96
2021/07/26 12:48:15;;;;;;;5.35;4.18;;;35.40;41.60;;;;;;6002388;23;20003;-95
2021/07/26 12:51:37;;;;;;;5.13;4.63;;;35.20;42.10;;;;;;6002849;23;20039;-93
2021/07/26 12:58:20;;;;;;;;;;;;;;;;;;;;;
2021/07/26 13:06:46;;;;;;;6.82;4.68;;;34.20;42.90;;;;;;6206038;23;20032;-93
2021/07/26 13:09:31;;;;;;;4.70;4.30;;;34.50;43.60;;;;;;6201143;23;20020;-93
2021/07/26 13:12:27;;;;;;;;;;;;;;;;;;;;;
2021/07/26 13:15:21;;;;;;;5.20;4.68;;;35.60;43.00;;;;;;6185689;23;20005;-95
2021/07/26 13:18:34;;;;;;;5.40;4.90;;;36.20;42.10;;;;;;6158596;23;20012;-95
2021/07/26 13:24:04;;;;;;;5.22;4.72;;;36.70;41.30;;;;;;6147083;23;20037;-95
2021/07/26 13:26:56;;;;;;;7.32;4.95;;;36.90;40.90;;;;;;6125640;23;20001;-95
2021/07/26 13:29:30;;;;;;;4.70;4.30;;;37.20;41.30;;;;;;6145144;23;20006;-95
2021/07/26 13:32:05;;;;;;;5.22;4.72;;;37.50;41.10;;;;;;6146837;23;20049;-95
2021/07/26 13:35:19;;;;;;;5.07;4.57;;;37.80;40.90;;;;;;6147565;23;20010;-96
2021/07/26 14:04:56;;;;;;;4.75;4.25;;;39.90;36.50;;;;;;6071289;23;20073;-96
2021/07/26 15:01:10;;;;;;;;;;;;;;;;;;;;;
2021/07/26 15:16:01;;;;;;;4.50;3.85;;;38.70;35.50;;;;;;6295725;22;20395;-96
2021/07/26 15:21:04;;;;;;;3.70;3.40;;;38.60;35.90;;;;;;6289644;22;20022;-95
2021/07/26 15:23:36;;;;;;;3.92;3.63;;;38.90;36.00;;;;;;6308646;22;20003;-96
2021/07/26 15:26:22;;;;;;;4.22;3.45;;;39.30;35.90;;;;;;6265991;22;20044;-96
2021/07/26 15:34:50;;;;;;;4.10;3.80;;;40.60;34.50;;;;;;6326692;22;20042;-96
2021/07/26 15:37:21;;;;;;;3.97;3.67;;;40.50;34.10;;;;;;6291418;22;20018;-96
2021/07/26 15:40:31;;;;;;;;;;;;;;;;;;;;;
2021/07/26 15:46:32;;;;;;;4.10;3.58;;;40.50;35.20;;;;;;6216381;22;20055;-96
2021/07/26 15:48:59;;;;;;;3.42;3.13;;;40.40;34.70;;;;;;6186490;23;19988;-96
2021/07/26 15:55:05;;;;;;;4.75;3.92;;;40.40;34.60;;;;;;6186454;23;20035;-95
2021/07/26 15:57:37;;;;;;;4.95;4.03;;;40.10;34.80;;;;;;6117499;23;20034;-95
2021/07/26 16:00:23;;;;;;;4.28;3.88;;;39.80;34.80;;;;;;6110582;23;20006;-93
2021/07/26 16:13:04;;;;;;;3.65;3.30;;;38.50;35.60;;;;;;6048387;23;20378;-94
2021/07/26 16:15:30;;;;;;;3.22;2.92;;;37.80;35.80;;;;;;6045201;23;20365;-93
2021/07/26 16:18:02;;;;;;;4.43;3.78;;;37.20;36.40;;;;;;6035199;23;20062;-94
2021/07/26 16:20:52;;;;;;;4.18;3.78;;;36.50;36.90;;;;;;6055900;23;20061;-95
2021/07/26 16:37:12;;;;;;;5.13;3.88;;;33.40;39.40;;;;;;6145639;23;20047;-95
2021/07/26 16:39:38;;;;;;;6.28;3.95;;;33.00;40.00;;;;;;6164680;22;20041;-96
2021/07/26 16:42:15;;;;;;;4.82;3.92;;;32.70;40.10;;;;;;6293128;22;19995;-95
2021/07/26 16:44:41;;;;;;;6.32;4.60;;;32.40;40.60;;;;;;6241520;22;20038;-94
2021/07/26 16:47:08;;;;;;;7.30;4.18;;;32.10;40.90;;;;;;6315221;22;20006;-94
2021/07/26 16:49:41;;;;;;;4.28;3.88;;;31.90;41.10;;;;;;6262380;22;19999;-94
2021/07/26 16:52:13;;;;;;;7.70;3.80;;;31.60;41.40;;;;;;6264368;22;20004;-95
2021/07/26 16:54:44;;;;;;;4.30;3.85;;;31.40;41.60;;;;;;6295810;22;20021;-95